createdAt,value
2018-05-31T00:04:13.770Z,3.28
2018-05-31T00:09:18.115Z,4.70
2018-05-31T00:14:21.362Z,3.45
2018-05-31T00:19:24.595Z,5.25
2018-05-31T00:24:27.830Z,7.05
2018-05-31T00:29:31.073Z,5.55
2018-05-31T00:34:34.361Z,7.65
2018-05-31T00:39:38.015Z,5.47
2018-05-31T00:44:41.250Z,7.45
2018-05-31T00:49:44.503Z,6.55
2018-05-31T00:54:47.756Z,4.55
2018-05-31T00:59:50.974Z,4.28
2018-05-31T01:04:54.712Z,4.93
2018-05-31T01:09:57.935Z,6.22
2018-05-31T01:15:01.162Z,6.07
2018-05-31T01:20:04.431Z,8.23
2018-05-31T01:25:07.655Z,6.62
2018-05-31T01:30:10.913Z,6.82
2018-05-31T01:35:14.195Z,7.35
2018-05-31T01:40:17.890Z,7.53
2018-05-31T01:45:21.143Z,6.97
2018-05-31T01:50:24.762Z,8.13
2018-05-31T01:55:28.020Z,6.93
2018-05-31T02:00:31.275Z,6.28
2018-05-31T02:05:34.536Z,5.35
2018-05-31T02:10:37.769Z,8.43
2018-05-31T02:15:41.048Z,7.28
2018-05-31T02:20:44.285Z,10.63
2018-05-31T02:25:47.646Z,10.13
2018-05-31T02:30:51.032Z,9.95
2018-05-31T02:35:54.681Z,8.75
2018-05-31T02:40:57.949Z,10.77
2018-05-31T02:46:01.201Z,8.65
2018-05-31T02:51:05.367Z,9.95
2018-05-31T02:56:08.600Z,8.95
2018-05-31T03:01:12.176Z,8.85
2018-05-31T03:06:15.418Z,8.68
2018-05-31T03:11:18.693Z,7.40
2018-05-31T03:16:21.919Z,8.75
2018-05-31T03:21:25.454Z,7.47
2018-05-31T03:26:28.729Z,8.68
2018-05-31T03:31:32.202Z,12.00
2018-05-31T03:36:35.466Z,10.30
2018-05-31T03:41:38.720Z,12.23
2018-05-31T03:46:41.992Z,12.40
2018-05-31T03:51:45.322Z,11.38
2018-05-31T03:56:48.615Z,12.45
2018-05-31T04:01:51.874Z,12.82
2018-05-31T04:06:56.232Z,9.80
2018-05-31T04:11:59.876Z,7.97
2018-05-31T04:17:03.312Z,12.02
2018-05-31T04:22:06.580Z,10.38
2018-05-31T04:27:09.962Z,13.30
2018-05-31T04:32:13.682Z,10.32
2018-05-31T04:37:16.915Z,14.75
2018-05-31T04:42:20.145Z,8.00
2018-05-31T04:47:23.416Z,9.52
2018-05-31T04:52:26.646Z,9.38
2018-05-31T04:57:29.886Z,10.00
2018-05-31T05:02:33.122Z,9.48
2018-05-31T05:07:36.385Z,10.77
2018-05-31T05:12:39.617Z,8.57
2018-05-31T05:17:42.891Z,11.07
2018-05-31T05:22:46.159Z,7.62
2018-05-31T05:27:49.426Z,9.00
2018-05-31T05:32:52.675Z,7.28
2018-05-31T05:37:55.924Z,6.40
2018-05-31T05:42:59.175Z,9.65
2018-05-31T05:48:02.427Z,10.63
2018-05-31T05:53:05.818Z,7.62
2018-05-31T05:58:09.107Z,8.48
2018-05-31T06:03:12.341Z,8.00
2018-05-31T06:08:15.692Z,11.52
2018-05-31T06:13:19.520Z,8.50
2018-05-31T06:18:22.757Z,7.68
2018-05-31T06:23:26.321Z,8.05
2018-05-31T06:28:29.607Z,6.95
2018-05-31T06:33:33.264Z,8.18
2018-05-31T06:38:36.633Z,10.65
2018-05-31T06:43:40.447Z,8.25
2018-05-31T06:48:44.158Z,6.82
2018-05-31T06:53:48.692Z,6.97
2018-05-31T06:58:52.325Z,8.02
2018-05-31T07:03:55.603Z,7.90
2018-05-31T07:08:59.235Z,8.35
2018-05-31T07:14:02.518Z,7.72
2018-05-31T07:19:06.157Z,9.80
2018-05-31T07:24:09.385Z,9.05
2018-05-31T07:29:12.727Z,8.55
2018-05-31T07:34:16.357Z,9.88
2018-05-31T07:39:19.598Z,6.90
2018-05-31T07:44:22.891Z,9.10
2018-05-31T07:49:26.152Z,8.57
2018-05-31T07:54:29.766Z,10.00
2018-05-31T07:59:33.023Z,9.95
2018-05-31T08:04:36.247Z,8.13
2018-05-31T08:09:39.494Z,9.88
2018-05-31T08:14:42.884Z,7.72
2018-05-31T08:19:46.121Z,8.05
2018-05-31T08:24:49.560Z,8.43
2018-05-31T08:29:53.193Z,7.40
2018-05-31T08:34:56.833Z,10.05
2018-05-31T08:40:00.086Z,6.82
2018-05-31T08:45:03.732Z,7.60
2018-05-31T08:50:06.954Z,7.82
2018-05-31T08:55:10.197Z,8.30
2018-05-31T09:00:13.909Z,7.35
2018-05-31T09:05:17.540Z,10.40
2018-05-31T09:10:20.755Z,9.25
2018-05-31T09:15:23.986Z,7.05
2018-05-31T09:20:27.446Z,11.82
2018-05-31T09:25:30.708Z,11.60
2018-05-31T09:30:33.951Z,6.43
2018-05-31T09:35:37.232Z,8.55
2018-05-31T09:40:40.855Z,9.07
2018-05-31T09:45:44.479Z,6.62
2018-05-31T09:50:47.856Z,9.93
2018-05-31T09:55:51.479Z,9.20
2018-05-31T10:00:55.088Z,8.18
2018-05-31T10:05:58.314Z,7.12
2018-05-31T10:11:01.552Z,5.85
2018-05-31T10:16:04.802Z,9.82
2018-05-31T10:21:08.054Z,9.05
2018-05-31T10:26:11.353Z,6.32
2018-05-31T10:31:14.605Z,10.18
2018-05-31T10:36:17.884Z,6.32
2018-05-31T10:41:21.517Z,6.07
2018-05-31T10:46:24.853Z,5.37
2018-05-31T10:51:27.998Z,3.97
2018-05-31T10:56:31.611Z,5.37
2018-05-31T11:01:35.257Z,2.35
2018-05-31T11:06:38.528Z,3.58
2018-05-31T11:11:42.165Z,8.05
2018-05-31T11:16:45.410Z,4.65
2018-05-31T11:21:48.670Z,2.55
2018-05-31T11:26:51.891Z,4.75
2018-05-31T11:31:55.138Z,4.03
2018-05-31T11:36:58.799Z,3.58
2018-05-31T11:42:02.040Z,5.07
2018-05-31T11:47:05.699Z,5.15
2018-05-31T11:52:08.925Z,4.53
2018-05-31T11:57:12.152Z,3.30
2018-05-31T12:02:15.772Z,4.45
2018-05-31T12:07:19.401Z,4.10
2018-05-31T12:12:22.777Z,2.28
2018-05-31T12:17:26.586Z,2.70
2018-05-31T12:22:30.410Z,3.42
2018-05-31T12:27:34.036Z,4.85
2018-05-31T12:32:37.264Z,4.00
2018-05-31T12:37:40.536Z,2.92
2018-05-31T12:42:43.813Z,4.40
2018-05-31T12:47:47.039Z,4.15
2018-05-31T12:52:50.319Z,4.70
2018-05-31T12:57:53.952Z,3.97
2018-05-31T13:02:57.174Z,2.45
2018-05-31T13:08:00.417Z,5.43
2018-05-31T13:13:03.667Z,3.22
2018-05-31T13:18:06.910Z,4.32
2018-05-31T13:23:10.261Z,4.85
2018-05-31T13:28:13.761Z,5.45
2018-05-31T13:33:17.063Z,4.03
2018-05-31T13:38:20.370Z,2.95
2018-05-31T13:43:23.663Z,3.55
2018-05-31T13:48:26.950Z,2.95
2018-05-31T13:53:30.580Z,4.68
2018-05-31T13:58:33.823Z,4.18
2018-05-31T14:03:37.055Z,6.35
2018-05-31T14:08:41.050Z,6.15
2018-05-31T14:13:44.232Z,3.35
2018-05-31T14:18:47.495Z,3.12
2018-05-31T14:23:51.104Z,3.97
2018-05-31T14:28:54.744Z,4.03
2018-05-31T14:33:58.105Z,6.00
2018-05-31T14:39:01.818Z,4.65
2018-05-31T14:44:05.471Z,5.12
2018-05-31T14:49:08.718Z,3.55
2018-05-31T14:54:12.030Z,3.90
2018-05-31T14:59:15.671Z,4.95
2018-05-31T15:04:18.942Z,4.22
2018-05-31T15:09:22.570Z,5.50
2018-05-31T15:14:25.785Z,5.70
2018-05-31T15:19:29.717Z,3.85
2018-05-31T15:24:32.978Z,5.93
2018-05-31T15:29:36.892Z,5.70
2018-05-31T15:34:40.533Z,3.72
2018-05-31T15:39:43.813Z,5.05
2018-05-31T15:44:47.453Z,5.70
2018-05-31T15:49:50.738Z,6.43
2018-05-31T15:54:53.982Z,6.10
2018-05-31T15:59:57.221Z,5.85
2018-05-31T16:05:00.849Z,4.97
2018-05-31T16:10:04.141Z,5.50
2018-05-31T16:15:07.386Z,8.07
2018-05-31T16:20:11.575Z,5.35
2018-05-31T16:25:15.371Z,4.35
2018-05-31T16:30:18.992Z,5.32
2018-05-31T16:35:22.219Z,5.40
2018-05-31T16:40:25.431Z,5.10
2018-05-31T16:45:28.667Z,5.05
2018-05-31T16:50:32.282Z,3.97
2018-05-31T16:55:36.014Z,5.05
2018-05-31T17:00:39.307Z,6.53
2018-05-31T17:05:42.927Z,4.53
2018-05-31T17:10:46.213Z,7.87
2018-05-31T17:15:49.858Z,10.00
2018-05-31T17:20:53.123Z,5.82
2018-05-31T17:25:56.860Z,5.35
2018-05-31T17:31:00.134Z,7.72
2018-05-31T17:36:03.874Z,4.60
2018-05-31T17:41:07.116Z,7.07
2018-05-31T17:46:10.330Z,4.62
2018-05-31T17:51:13.561Z,6.22
2018-05-31T17:56:16.951Z,6.32
2018-05-31T18:01:20.175Z,4.15
2018-05-31T18:06:23.419Z,3.55
2018-05-31T18:11:27.142Z,4.57
2018-05-31T18:16:30.567Z,5.25
2018-05-31T18:21:33.894Z,4.32
2018-05-31T18:26:37.270Z,5.00
2018-05-31T18:31:40.913Z,5.25
2018-05-31T18:36:44.171Z,5.35
2018-05-31T18:41:47.405Z,6.80
2018-05-31T18:46:50.710Z,5.55
2018-05-31T18:51:53.969Z,6.57
2018-05-31T18:56:57.208Z,4.65
2018-05-31T19:02:00.436Z,6.30
2018-05-31T19:07:03.708Z,5.22
2018-05-31T19:12:06.962Z,4.80
2018-05-31T19:17:10.208Z,9.25
2018-05-31T19:22:14.635Z,5.35
2018-05-31T19:27:18.269Z,6.80
2018-05-31T19:32:21.545Z,9.70
2018-05-31T19:37:24.765Z,8.07
2018-05-31T19:42:33.457Z,5.95
2018-05-31T19:47:37.079Z,5.80
2018-05-31T19:52:46.524Z,7.03
2018-05-31T19:57:55.762Z,8.35
2018-05-31T20:03:04.946Z,2.80
2018-05-31T20:08:08.334Z,8.45
2018-05-31T20:13:11.575Z,4.12
2018-05-31T20:18:14.831Z,5.62
2018-05-31T20:23:18.212Z,1.98
2018-05-31T20:28:22.441Z,2.03
2018-05-31T20:33:26.069Z,4.53
2018-05-31T20:38:29.297Z,4.82
2018-05-31T20:43:32.521Z,2.35
2018-05-31T20:48:36.211Z,2.67
2018-05-31T20:53:39.453Z,5.15
2018-05-31T20:58:42.761Z,4.97
2018-05-31T21:03:46.428Z,3.72
2018-05-31T21:08:49.651Z,4.32
2018-05-31T21:13:52.885Z,7.78
2018-05-31T21:18:56.605Z,6.80
2018-05-31T21:23:59.897Z,3.53
2018-05-31T21:29:03.609Z,3.95
2018-05-31T21:34:07.309Z,3.40
2018-05-31T21:39:11.592Z,2.65
2018-05-31T21:44:14.809Z,5.10
2018-05-31T21:49:18.049Z,3.40
2018-05-31T21:54:21.853Z,4.80
2018-05-31T21:59:25.500Z,4.22
2018-05-31T22:04:28.740Z,5.97
2018-05-31T22:09:32.018Z,4.40
2018-05-31T22:14:35.354Z,4.25
2018-05-31T22:19:38.595Z,2.95
2018-05-31T22:24:41.821Z,5.53
2018-05-31T22:29:45.171Z,4.78
2018-05-31T22:34:48.818Z,5.68
2018-05-31T22:39:52.074Z,3.87
2018-05-31T22:44:55.311Z,4.03
2018-05-31T22:49:58.536Z,4.18
2018-05-31T22:55:01.887Z,2.97
2018-05-31T23:00:05.536Z,4.85
2018-05-31T23:05:08.755Z,5.45
2018-05-31T23:10:11.984Z,3.72
2018-05-31T23:15:15.209Z,3.12
2018-05-31T23:20:18.858Z,2.50
2018-05-31T23:25:22.086Z,3.35
2018-05-31T23:30:25.317Z,4.07
2018-05-31T23:35:29.019Z,3.62
2018-05-31T23:40:32.651Z,3.50
2018-05-31T23:45:36.033Z,4.40
2018-05-31T23:50:39.656Z,6.43
2018-05-31T23:55:43.262Z,6.82
